Tümü
Vereeniging Airport (Vereeniging, South Africa) FAVV Hava Durumu
|
Vereeniging, South Africa (FAVV)
Açık
Hafif rüzgârlı |
|
2 °C |
There is no TAF data available at FAVV or any nearby airports.
Yakın zamandaki FAVV METAR geçmişi
| Date | Time (SAST) | Flight Rules | Wind Dir. | Speed | Type | Height AGL (ft) | Visibility | Temp (°C) | Temp (°F) | Dew Point (°C) | Dew Point (°F) | Rel. Humid. | Pressure | Density Altitude | Remarks |
|---|---|---|---|---|---|---|---|---|---|---|---|---|---|---|---|
| 08-May | 06:00 | n/a | 280° | 3 kt | Missing | 2° | 35° | 2° | 35° | 100% | 1022 mb | 3.989 ft | |||
| 08-May | 05:00 | n/a | 260° | 2 kt | Missing | 2° | 35° | 2° | 35° | 100% | 1021 mb | 4.018 ft | |||
| 08-May | 04:00 | n/a | 290° | 3 kt | Missing | 2° | 35° | 2° | 35° | 100% | 1021 mb | 4.018 ft | |||
| 08-May | 03:00 | n/a | 270° | 3 kt | Missing | 3° | 37° | 2° | 35° | 93% | 1021 mb | 4.138 ft | |||
| 08-May | 02:00 | n/a | 280° | 3 kt | Missing | 3° | 37° | 2° | 35° | 93% | 1021 mb | 4.138 ft | |||
| 08-May | 01:00 | n/a | 300° | 3 kt | Missing | 4° | 39° | 3° | 37° | 93% | 1021 mb | 4.258 ft | |||
| 08-May | 00:00 | n/a | 210° | 2 kt | Missing | 6° | 42° | 3° | 37° | 81% | 1022 mb | 4.469 ft | |||
| 07-May | 23:00 | n/a | 210° | 3 kt | Missing | 7° | 44° | 4° | 39° | 81% | 1023 mb | 4.559 ft | |||
| 07-May | 22:00 | n/a | 210° | 3 kt | Missing | 7° | 44° | 4° | 39° | 81% | 1023 mb | 4.559 ft | |||
| 07-May | 21:00 | n/a | 200° | 2 kt | Missing | 8° | 46° | 4° | 39° | 76% | 1022 mb | 4.709 ft | |||
| 07-May | 20:00 | n/a | 170° | 3 kt | Missing | 10° | 50° | 5° | 41° | 71% | 1022 mb | 4.949 ft | |||
| 07-May | 19:00 | n/a | 190° | 3 kt | Missing | 9° | 48° | 5° | 41° | 76% | 1021 mb | 4.858 ft | |||
| 07-May | 18:00 | n/a | 180° | 4 kt | Missing | 11° | 51° | 4° | 39° | 62% | 1021 mb | 5.098 ft | |||
| 07-May | 17:00 | n/a | 160° | 7 kt | Missing | 13° | 55° | 5° | 41° | 58% | 1020 mb | 5.368 ft | |||
| 07-May | 16:00 | n/a | 140° | 7 kt | Missing | 14° | 57° | 5° | 41° | 55% | 1020 mb | 5.488 ft | |||
| 07-May | 15:00 | n/a | 160° | 8 kt | Missing | 13° | 55° | 5° | 41° | 58% | 1020 mb | 5.368 ft | |||
| 07-May | 14:00 | n/a | 180° | 8 kt | Missing | 12° | 53° | 5° | 41° | 62% | 1019 mb | 5.277 ft | |||
| 07-May | 13:00 | n/a | 170° | 8 kt | Missing | 11° | 51° | 5° | 41° | 66% | 1020 mb | 5.128 ft | |||
| 07-May | 12:00 | n/a | 200° | 7 kt | Missing | 10° | 50° | 5° | 41° | 71% | 1021 mb | 4.978 ft | |||
| 07-May | 11:00 | n/a | 190° | 8 kt | Missing | 9° | 48° | 4° | 39° | 71% | 1021 mb | 4.858 ft | |||
| 07-May | 10:00 | n/a | 200° | 11 kt | Missing | 8° | 46° | 4° | 39° | 76% | 1021 mb | 4.738 ft | |||
| 07-May | 09:00 | n/a | 200° | 10 kt | Missing | 8° | 46° | 4° | 39° | 76% | 1021 mb | 4.738 ft | |||
| 07-May | 08:00 | n/a | 200° | 9 kt | Missing | 8° | 46° | 4° | 39° | 76% | 1020 mb | 4.768 ft | |||
| 07-May | 07:00 | n/a | 200° | 8 kt | Missing | 7° | 44° | 4° | 39° | 81% | 1020 mb | 4.648 ft |
Giriş
| Tarayıcınız desteklenmiyor. tarayıcınızı yükseltin |
